Time;durP1;ratioP1;P1;durP2;ratioP2;P2;SDS_P1;SDS_P2;PMS_P1;PMS_P2;Temp;Humidity;BMP_temperature;BMP_pressure;BME280_temperature;BME280_humidity;BME280_pressure;Samples;Min_cycle;Max_cycle;Signal;HPM_P1;HPM_P2
2021/09/16 00:01:39;;;;;;;3.55;0.80;;;;;;;23.21;42.75;101070.53;5005217;28;20495;-72
2021/09/16 00:04:05;;;;;;;0.90;0.63;;;;;;;23.20;43.33;101073.47;5007178;28;20495;-72
2021/09/16 00:06:32;;;;;;;2.55;0.85;;;;;;;23.20;43.33;101067.94;5007781;28;20046;-72
2021/09/16 00:08:59;;;;;;;1.88;0.90;;;;;;;23.19;43.23;101066.19;5006914;28;20058;-72
2021/09/16 00:11:25;;;;;;;1.73;0.70;;;;;;;23.19;42.87;101071.72;5008224;28;20053;-72
2021/09/16 00:13:52;;;;;;;1.50;0.75;;;;;;;23.19;42.43;101071.72;5006702;28;20046;-72
2021/09/16 00:16:19;;;;;;;2.20;0.80;;;;;;;23.18;42.76;101075.53;5007728;28;20483;-72
2021/09/16 00:18:45;;;;;;;2.42;0.75;;;;;;;23.17;42.67;101085.75;5007074;28;20056;-72
2021/09/16 00:21:12;;;;;;;2.17;0.77;;;;;;;23.14;42.75;101077.81;5008154;28;20111;-72
2021/09/16 00:23:38;;;;;;;2.83;0.90;;;;;;;23.13;42.60;101076.97;4989224;28;20573;-72
2021/09/16 00:26:05;;;;;;;2.90;0.75;;;;;;;23.09;42.38;101072.81;5015103;28;20125;-72
2021/09/16 00:28:31;;;;;;;2.03;0.80;;;;;;;23.08;42.38;101071.06;5007071;28;20305;-72
2021/09/16 00:30:58;;;;;;;1.27;0.70;;;;;;;23.07;42.54;101074.00;5000051;28;20411;-72
2021/09/16 00:33:24;;;;;;;1.90;0.90;;;;;;;23.05;43.01;101077.00;5006443;28;20470;-72
2021/09/16 00:35:51;;;;;;;2.50;0.60;;;;;;;23.04;42.52;101072.50;5007515;28;20050;-71
2021/09/16 00:38:17;;;;;;;1.60;0.70;;;;;;;23.03;42.62;101075.44;5006798;28;20129;-72
2021/09/16 00:40:44;;;;;;;1.90;0.80;;;;;;;23.03;42.26;101078.19;5007364;28;20056;-71
2021/09/16 00:43:11;;;;;;;2.88;0.80;;;;;;;23.01;42.30;101086.69;4988951;28;20080;-71
2021/09/16 00:45:37;;;;;;;1.73;0.75;;;;;;;23.01;42.14;101080.28;5007350;28;20096;-72
2021/09/16 00:48:04;;;;;;;2.03;0.68;;;;;;;23.00;42.17;101082.19;5006625;28;20132;-71
2021/09/16 00:50:31;;;;;;;1.50;0.63;;;;;;;23.00;42.11;101075.78;5007198;28;20050;-71
2021/09/16 00:52:59;;;;;;;1.75;0.68;;;;;;;22.99;41.96;101077.69;5005148;28;20558;-72
2021/09/16 00:55:27;;;;;;;2.25;0.65;;;;;;;22.98;42.11;101078.72;5007808;28;20093;-72
2021/09/16 00:57:59;;;;;;;1.73;0.70;;;;;;;22.96;42.07;101082.72;5000978;28;20074;-72
2021/09/16 01:00:25;;;;;;;1.25;0.73;;;;;;;22.93;42.24;101078.41;4995244;28;20240;-73
2021/09/16 01:02:52;;;;;;;1.10;0.63;;;;;;;22.93;41.93;101086.69;4994966;28;20535;-71
2021/09/16 01:05:18;;;;;;;3.08;1.42;;;;;;;22.91;42.03;101085.13;5006961;28;20116;-72
2021/09/16 01:07:45;;;;;;;2.65;0.75;;;;;;;22.89;42.15;101090.03;4988436;28;20132;-71
2021/09/16 01:10:12;;;;;;;0.77;0.52;;;;;;;22.87;42.26;101089.31;5007273;28;20422;-71
2021/09/16 01:12:40;;;;;;;2.70;0.82;;;;;;;22.85;42.09;101089.50;5006141;28;20543;-71
2021/09/16 01:15:09;;;;;;;2.20;0.80;;;;;;;22.84;42.00;101098.84;5006707;28;20427;-71
2021/09/16 01:17:36;;;;;;;1.55;0.60;;;;;;;22.80;42.09;101094.72;4987704;28;20128;-71
2021/09/16 01:20:04;;;;;;;1.38;0.80;;;;;;;22.80;41.86;101097.47;4989586;28;20050;-71
2021/09/16 01:22:34;;;;;;;2.28;0.60;;;;;;;22.79;41.97;101100.41;4995484;28;20097;-71
2021/09/16 01:25:02;;;;;;;1.17;0.70;;;;;;;22.76;41.83;101096.09;4987032;28;20145;-71
2021/09/16 01:27:28;;;;;;;1.85;0.80;;;;;;;22.74;42.23;101095.38;4986389;28;20422;-75
2021/09/16 01:29:55;;;;;;;1.20;0.90;;;;;;;22.74;41.44;101098.16;5006134;28;20285;-76
2021/09/16 01:32:22;;;;;;;1.63;0.60;;;;;;;22.74;42.20;101103.69;4997131;28;20517;-76
2021/09/16 01:34:48;;;;;;;1.77;0.77;;;;;;;22.72;42.21;101101.09;5008733;28;20113;-76
2021/09/16 01:37:15;;;;;;;2.15;0.80;;;;;;;22.70;42.19;101105.06;5026119;28;20148;-76
2021/09/16 01:39:42;;;;;;;2.90;1.20;;;;;;;22.68;41.68;101108.00;5025046;28;20537;-76
2021/09/16 01:42:08;;;;;;;2.25;0.80;;;;;;;22.67;42.11;101108.16;5002398;28;20060;-76
2021/09/16 01:44:35;;;;;;;2.03;0.80;;;;;;;22.65;41.97;101107.47;5005397;28;20125;-76
2021/09/16 01:47:02;;;;;;;3.55;1.45;;;;;;;22.64;41.88;101116.84;5010099;28;20460;-76
2021/09/16 01:49:30;;;;;;;2.08;0.75;;;;;;;22.62;41.71;101108.72;5007384;28;20136;-77
2021/09/16 01:51:57;;;;;;;1.38;0.70;;;;;;;22.59;41.76;101111.81;5022690;28;20057;-76
2021/09/16 01:54:24;;;;;;;1.35;0.70;;;;;;;22.57;41.98;101127.72;5004987;28;20135;-76
2021/09/16 01:56:50;;;;;;;1.80;0.70;;;;;;;22.56;41.89;101119.63;4989695;28;20139;-77
2021/09/16 01:59:17;;;;;;;1.30;0.68;;;;;;;22.55;41.70;101131.72;4973501;28;20137;-77
2021/09/16 02:01:43;;;;;;;1.48;0.70;;;;;;;22.53;42.02;101123.59;4986703;28;20133;-76
2021/09/16 02:04:10;;;;;;;1.95;0.80;;;;;;;22.53;42.41;101125.47;5004907;28;20053;-76
2021/09/16 02:06:36;;;;;;;1.45;0.73;;;;;;;22.53;42.35;101133.78;5005948;28;20563;-77
2021/09/16 02:09:03;;;;;;;2.13;0.85;;;;;;;22.50;41.84;101137.75;5004948;28;20140;-76
2021/09/16 02:11:29;;;;;;;2.45;0.68;;;;;;;22.49;42.17;101141.56;5025902;28;20049;-76
2021/09/16 02:13:56;;;;;;;1.77;0.75;;;;;;;22.48;42.37;101139.84;5007695;28;20476;-76
2021/09/16 02:16:22;;;;;;;1.90;0.73;;;;;;;22.47;41.87;101138.13;5005798;28;20603;-76
2021/09/16 02:18:49;;;;;;;2.25;0.70;;;;;;;22.47;42.06;101140.88;5004631;28;20058;-76
2021/09/16 02:21:15;;;;;;;2.60;0.98;;;;;;;22.46;42.05;101141.06;4988561;28;20418;-77
2021/09/16 02:23:42;;;;;;;2.17;0.95;;;;;;;22.45;42.37;101145.72;5000533;28;20049;-76
2021/09/16 02:26:08;;;;;;;2.67;0.80;;;;;;;22.43;41.83;101152.44;5025816;28;20140;-76
2021/09/16 02:28:35;;;;;;;1.27;0.98;;;;;;;22.42;42.23;101151.59;5001670;28;20133;-77
2021/09/16 02:31:01;;;;;;;1.42;0.80;;;;;;;22.40;42.00;101154.53;4986360;28;20134;-76
2021/09/16 02:33:32;;;;;;;1.77;0.80;;;;;;;22.39;42.15;101152.81;4977525;28;20052;-76
2021/09/16 02:35:59;;;;;;;1.73;0.85;;;;;;;22.37;41.94;101151.25;5005653;28;20049;-76
2021/09/16 02:38:27;;;;;;;3.63;0.80;;;;;;;22.35;42.14;101148.66;4995981;28;20081;-76
2021/09/16 02:40:53;;;;;;;2.10;0.93;;;;;;;22.34;42.12;101151.59;5025294;28;20063;-76
2021/09/16 02:43:20;;;;;;;1.80;0.90;;;;;;;22.33;42.19;101155.38;4999646;28;20136;-76
2021/09/16 02:45:46;;;;;;;3.78;1.05;;;;;;;22.30;42.52;101170.44;5005481;28;20129;-77
2021/09/16 02:48:13;;;;;;;2.67;0.85;;;;;;;22.28;42.18;101178.03;5004480;28;20547;-76
2021/09/16 02:50:40;;;;;;;1.17;0.80;;;;;;;22.27;42.41;101169.91;5007595;28;20049;-76
2021/09/16 02:53:06;;;;;;;3.53;1.13;;;;;;;22.25;42.48;101180.25;4983896;28;20077;-76
2021/09/16 02:55:33;;;;;;;2.88;0.90;;;;;;;22.24;42.11;101181.31;5028939;28;20619;-76
2021/09/16 02:57:59;;;;;;;1.80;0.80;;;;;;;22.22;42.84;101184.25;4999831;28;20138;-77
2021/09/16 03:00:26;;;;;;;2.08;1.00;;;;;;;22.20;42.83;101183.56;4975192;28;20137;-76
2021/09/16 03:02:52;;;;;;;2.20;1.02;;;;;;;22.19;42.23;101176.28;4972236;28;20046;-76
2021/09/16 03:05:19;;;;;;;2.13;0.90;;;;;;;22.19;42.64;101179.06;5009297;28;20093;-76
2021/09/16 03:07:48;;;;;;;1.58;1.00;;;;;;;22.17;42.70;101181.13;5008212;28;20799;-77
2021/09/16 03:10:15;;;;;;;3.70;1.10;;;;;;;22.16;42.19;101184.06;5008763;28;20145;-77
2021/09/16 03:12:42;;;;;;;3.78;1.10;;;;;;;22.14;42.38;101184.25;5008647;28;20069;-77
2021/09/16 03:15:09;;;;;;;2.85;1.10;;;;;;;22.13;42.62;101190.81;4991437;28;20137;-77
2021/09/16 03:17:36;;;;;;;4.35;1.20;;;;;;;22.10;42.87;101179.19;4990666;28;20517;-79
2021/09/16 03:20:04;;;;;;;3.90;1.30;;;;;;;22.08;42.71;101176.59;5007733;28;20136;-77
2021/09/16 03:22:30;;;;;;;3.80;1.30;;;;;;;22.05;42.94;101174.19;5028359;28;20132;-77
2021/09/16 03:24:57;;;;;;;2.33;1.25;;;;;;;22.02;42.97;101167.09;5013479;28;20049;-77
2021/09/16 03:27:23;;;;;;;3.90;1.38;;;;;;;22.01;42.43;101167.25;4988821;28;20133;-77
2021/09/16 03:29:50;;;;;;;2.55;1.10;;;;;;;21.99;42.85;101163.78;4973963;28;20050;-76
2021/09/16 03:32:16;;;;;;;4.38;1.55;;;;;;;21.96;42.72;101170.50;4972072;28;20165;-76
2021/09/16 03:34:43;;;;;;;3.45;1.40;;;;;;;21.96;42.81;101170.50;4982410;28;20129;-77
2021/09/16 03:37:10;;;;;;;3.53;1.33;;;;;;;21.94;42.88;101169.81;4990856;28;20108;-77
2021/09/16 03:39:36;;;;;;;4.63;1.15;;;;;;;21.92;42.88;101171.00;4990239;28;20133;-76
2021/09/16 03:42:03;;;;;;;2.58;1.23;;;;;;;21.90;42.80;101170.31;5009019;28;20056;-76
2021/09/16 03:44:30;;;;;;;3.15;1.38;;;;;;;21.88;43.15;101177.91;5006983;28;20050;-76
2021/09/16 03:46:57;;;;;;;2.08;1.23;;;;;;;21.87;43.22;101170.66;4990597;28;20136;-76
2021/09/16 03:49:23;;;;;;;4.53;1.83;;;;;;;21.85;43.27;101172.72;4997404;28;20056;-76
2021/09/16 03:51:50;;;;;;;3.45;1.40;;;;;;;21.85;43.09;101172.72;5025811;28;20561;-77
2021/09/16 03:54:16;;;;;;;3.35;1.80;;;;;;;21.83;42.84;101169.25;4973912;28;20134;-77
2021/09/16 03:56:43;;;;;;;4.05;1.40;;;;;;;21.82;42.91;101171.16;4988204;28;20141;-76
2021/09/16 03:59:09;;;;;;;2.70;1.58;;;;;;;21.81;43.26;101168.56;5005378;28;20056;-77
2021/09/16 04:01:36;;;;;;;4.13;1.38;;;;;;;21.79;43.31;101171.50;4991703;28;20057;-77
2021/09/16 04:04:02;;;;;;;3.33;1.58;;;;;;;21.79;43.23;101167.84;4974400;28;20038;-76
2021/09/16 04:06:29;;;;;;;3.22;1.55;;;;;;;21.77;43.22;101176.31;5026640;28;20462;-77
2021/09/16 04:08:55;;;;;;;3.63;1.80;;;;;;;21.76;43.28;101173.72;5009108;28;20480;-77
2021/09/16 04:11:22;;;;;;;3.38;1.90;;;;;;;21.75;43.29;101185.78;4990697;28;20133;-77
2021/09/16 04:13:48;;;;;;;2.28;1.45;;;;;;;21.73;42.93;101183.22;4989426;28;20140;-77
2021/09/16 04:16:15;;;;;;;4.10;1.80;;;;;;;21.71;43.22;101179.75;5026463;28;20535;-76
2021/09/16 04:18:41;;;;;;;3.25;1.73;;;;;;;21.69;43.31;101179.03;5009268;28;20502;-77
2021/09/16 04:21:08;;;;;;;5.18;1.88;;;;;;;21.68;42.87;101176.44;5010085;28;20132;-77
2021/09/16 04:23:34;;;;;;;3.63;1.88;;;;;;;21.66;43.39;101173.84;5026629;28;20137;-76
2021/09/16 04:26:01;;;;;;;3.58;2.05;;;;;;;21.64;43.57;101182.31;4994366;28;20136;-76
2021/09/16 04:28:27;;;;;;;5.00;1.98;;;;;;;21.63;43.51;101176.94;4997566;28;20070;-77
2021/09/16 04:30:54;;;;;;;4.28;1.75;;;;;;;21.62;43.30;101177.97;4995420;28;20073;-76
2021/09/16 04:33:20;;;;;;;4.30;1.90;;;;;;;21.60;43.12;101177.28;4986888;28;20046;-77
2021/09/16 04:35:47;;;;;;;4.45;1.83;;;;;;;21.58;43.80;101179.31;4994357;28;20053;-76
2021/09/16 04:38:15;;;;;;;5.50;2.25;;;;;;;21.56;43.35;101170.38;5026535;28;20529;-76
2021/09/16 04:40:43;;;;;;;3.58;2.05;;;;;;;21.56;43.81;101165.72;4998878;28;20467;-76
2021/09/16 04:43:09;;;;;;;4.72;2.13;;;;;;;21.54;43.46;101161.38;5006984;28;20555;-77
2021/09/16 04:45:36;;;;;;;3.30;1.77;;;;;;;21.53;43.62;101174.31;4989891;28;20260;-76
2021/09/16 04:48:03;;;;;;;3.85;2.05;;;;;;;21.53;43.84;101178.97;4988839;28;20503;-76
2021/09/16 04:50:29;;;;;;;3.58;2.10;;;;;;;21.52;43.71;101185.53;5015177;28;20045;-76
2021/09/16 04:52:59;;;;;;;5.28;2.10;;;;;;;21.51;43.52;101179.13;4985964;28;20534;-77
2021/09/16 04:55:26;;;;;;;5.10;2.13;;;;;;;21.49;43.64;101186.75;4995599;28;20049;-76
2021/09/16 04:57:52;;;;;;;4.07;1.90;;;;;;;21.48;43.60;101185.00;5001430;28;20439;-76
2021/09/16 05:00:19;;;;;;;3.65;2.15;;;;;;;21.47;44.18;101194.31;5001055;28;20307;-76
2021/09/16 05:02:45;;;;;;;4.40;2.10;;;;;;;21.46;43.80;101187.06;5025821;28;20056;-76
2021/09/16 05:05:12;;;;;;;3.17;2.25;;;;;;;21.46;43.92;101191.72;5006521;28;20124;-76
2021/09/16 05:07:39;;;;;;;3.80;2.28;;;;;;;21.45;43.99;101190.84;4988329;28;20050;-77
2021/09/16 05:10:06;;;;;;;3.78;2.20;;;;;;;21.45;43.78;101196.38;5008938;28;20050;-76
2021/09/16 05:12:33;;;;;;;3.35;1.88;;;;;;;21.43;44.17;101194.81;5025825;28;20148;-77
2021/09/16 05:14:59;;;;;;;4.72;2.20;;;;;;;;;;5008798;28;20547;-76
2021/09/16 05:17:26;;;;;;;4.68;2.60;;;;;;;21.40;44.18;101200.69;4987041;28;20149;-76
2021/09/16 05:19:52;;;;;;;4.70;2.10;;;;;;;21.39;43.73;101204.47;5006732;28;20049;-76
2021/09/16 05:22:19;;;;;;;4.38;2.13;;;;;;;21.37;43.71;101193.56;5024234;28;20077;-77
2021/09/16 05:24:46;;;;;;;3.92;2.05;;;;;;;21.36;43.79;101202.88;5009047;28;20041;-76
2021/09/16 05:27:13;;;;;;;3.25;2.08;;;;;;;21.35;44.44;101192.00;5008883;28;20109;-77
2021/09/16 05:29:39;;;;;;;3.42;2.03;;;;;;;21.34;44.27;101202.19;4985381;28;20535;-78
2021/09/16 05:32:06;;;;;;;4.50;2.20;;;;;;;21.33;43.97;101200.44;5002430;28;20484;-76
2021/09/16 05:34:33;;;;;;;4.93;2.10;;;;;;;21.32;44.08;101208.91;4988360;28;20046;-76
2021/09/16 05:36:59;;;;;;;4.55;2.20;;;;;;;21.31;44.13;101201.66;5020363;28;20535;-76
2021/09/16 05:39:26;;;;;;;3.78;2.20;;;;;;;21.30;43.81;101208.22;5007739;28;20080;-77
2021/09/16 05:41:52;;;;;;;4.78;2.40;;;;;;;21.29;44.38;101212.00;5013788;28;20148;-76
2021/09/16 05:44:18;;;;;;;3.97;2.00;;;;;;;21.28;44.54;101216.66;4988373;28;20121;-76
2021/09/16 05:46:45;;;;;;;4.68;2.00;;;;;;;21.29;43.99;101220.28;4999557;28;20136;-77
2021/09/16 05:49:12;;;;;;;4.10;2.28;;;;;;;21.28;44.33;101219.41;5025479;28;20157;-76
2021/09/16 05:51:38;;;;;;;4.57;2.10;;;;;;;21.25;44.48;101212.31;5017003;28;20412;-75
2021/09/16 05:54:05;;;;;;;4.18;1.98;;;;;;;21.24;44.05;101218.88;5005435;28;20056;-77
2021/09/16 05:56:31;;;;;;;4.35;2.22;;;;;;;21.23;44.29;101228.19;4995666;28;20081;-77
2021/09/16 05:58:58;;;;;;;4.00;2.33;;;;;;;21.21;44.41;101227.47;4979062;28;20061;-76
2021/09/16 06:01:24;;;;;;;5.78;2.17;;;;;;;21.20;44.81;101219.34;5008689;28;20402;-76
2021/09/16 06:03:51;;;;;;;3.22;2.10;;;;;;;21.17;44.75;101227.94;5025173;28;20545;-77
2021/09/16 06:06:17;;;;;;;3.92;2.10;;;;;;;21.16;44.37;101231.75;5003817;28;20125;-76
2021/09/16 06:08:44;;;;;;;4.80;2.13;;;;;;;21.15;44.71;101227.25;4987724;28;20046;-76
2021/09/16 06:11:11;;;;;;;4.13;2.10;;;;;;;21.14;44.73;101218.09;5009936;28;20129;-78
2021/09/16 06:13:37;;;;;;;5.07;2.42;;;;;;;21.16;44.89;101228.97;5028103;28;20085;-78
2021/09/16 06:16:07;;;;;;;5.45;2.10;;;;;;;21.15;44.66;101225.34;5026981;28;20046;-77
2021/09/16 06:18:33;;;;;;;5.85;2.13;;;;;;;21.16;45.10;101234.50;4987857;28;20136;-76
2021/09/16 06:21:02;;;;;;;4.72;2.35;;;;;;;21.18;45.22;101240.72;4988827;28;20108;-76
2021/09/16 06:23:28;;;;;;;4.35;2.33;;;;;;;21.17;45.13;101236.25;4984206;28;20129;-76
2021/09/16 06:25:55;;;;;;;5.22;2.80;;;;;;;21.17;45.06;101247.28;4968290;28;20050;-75
2021/09/16 06:28:21;;;;;;;4.60;2.60;;;;;;;21.18;45.26;101240.72;4993111;28;20416;-75
2021/09/16 06:30:48;;;;;;;5.03;2.53;;;;;;;21.20;45.26;101246.97;4980755;28;20072;-67
2021/09/16 06:33:15;;;;;;;6.03;2.45;;;;;;;21.21;45.48;101240.44;5005233;28;20049;-67
2021/09/16 06:35:41;;;;;;;4.40;2.53;;;;;;;21.21;45.58;101241.28;5005976;28;20092;-67
2021/09/16 06:38:08;;;;;;;5.13;2.60;;;;;;;21.23;45.69;101241.13;5005088;28;20056;-67
2021/09/16 06:40:34;;;;;;;4.50;2.63;;;;;;;21.26;45.62;101251.84;5006302;28;20133;-67
2021/09/16 06:43:00;;;;;;;7.00;2.80;;;;;;;21.28;46.08;101247.03;5005270;28;20097;-67
2021/09/16 06:45:27;;;;;;;5.50;2.58;;;;;;;21.31;45.71;101245.84;5005852;28;20050;-67
2021/09/16 06:47:53;;;;;;;5.18;2.50;;;;;;;21.36;45.98;101251.75;5004997;28;20522;-76
2021/09/16 06:50:20;;;;;;;6.10;3.08;;;;;;;21.37;45.80;101248.81;4988532;28;20089;-76
2021/09/16 06:52:47;;;;;;;5.75;3.33;;;;;;;21.39;45.53;101245.91;4977629;28;20507;-76
2021/09/16 06:55:13;;;;;;;5.30;2.95;;;;;;;;;;4985526;28;20081;-76
2021/09/16 06:57:39;;;;;;;5.50;3.00;;;;;;;21.43;45.64;101248.16;4979166;28;20579;-76
2021/09/16 07:00:07;;;;;;;5.80;2.85;;;;;;;21.46;45.91;101255.25;5008319;28;20468;-76
2021/09/16 07:02:34;;;;;;;4.78;2.72;;;;;;;21.47;45.31;101251.47;5006753;28;20095;-77
2021/09/16 07:05:03;;;;;;;5.70;3.08;;;;;;;21.50;45.16;101254.75;5008612;28;20049;-77
2021/09/16 07:07:29;;;;;;;4.38;2.67;;;;;;;21.50;45.54;101252.00;5004163;28;20114;-76
2021/09/16 07:09:57;;;;;;;5.15;3.00;;;;;;;21.53;45.59;101248.06;5007175;28;20137;-77
2021/09/16 07:12:28;;;;;;;6.45;2.97;;;;;;;21.52;45.41;101252.72;5005666;28;20295;-77
2021/09/16 07:14:55;;;;;;;5.20;2.63;;;;;;;21.55;45.31;101254.28;5014558;23;20050;-73
2021/09/16 07:17:21;;;;;;;5.38;2.80;;;;;;;21.55;45.27;101262.56;5007543;28;20045;-73
2021/09/16 07:19:48;;;;;;;7.20;2.83;;;;;;;21.55;45.08;101263.44;5025372;28;20148;-73
2021/09/16 07:22:15;;;;;;;7.10;2.55;;;;;;;21.57;45.31;101266.06;5025156;28;20148;-73
2021/09/16 07:24:41;;;;;;;5.82;3.17;;;;;;;21.56;45.26;101267.06;5022108;28;20051;-74
2021/09/16 07:27:08;;;;;;;4.82;2.35;;;;;;;21.56;45.39;101267.94;5044630;28;20083;-73
2021/09/16 07:29:34;;;;;;;5.65;2.90;;;;;;;21.57;45.77;101269.69;5043782;28;20402;-72
2021/09/16 07:32:01;;;;;;;4.55;2.60;;;;;;;21.58;45.88;101268.63;5044441;28;20052;-72
2021/09/16 07:34:27;;;;;;;4.70;2.63;;;;;;;21.60;45.96;101265.69;5044248;28;20076;-72
2021/09/16 07:36:54;;;;;;;5.75;3.03;;;;;;;21.62;45.85;101270.03;5044187;28;20095;-72
2021/09/16 07:39:21;;;;;;;4.80;2.67;;;;;;;21.64;46.06;101270.75;5044007;28;20528;-72
2021/09/16 07:41:49;;;;;;;6.32;3.08;;;;;;;21.67;46.03;101277.81;5030370;28;20132;-72
2021/09/16 07:44:17;;;;;;;7.10;3.10;;;;;;;21.70;45.72;101284.94;5030759;28;20049;-72
2021/09/16 07:46:44;;;;;;;4.65;2.70;;;;;;;21.72;45.59;101288.41;5027827;28;20045;-72
2021/09/16 07:49:11;;;;;;;4.38;2.47;;;;;;;21.73;45.70;101281.84;5027069;28;20065;-72
2021/09/16 07:51:37;;;;;;;5.22;2.95;;;;;;;21.76;45.95;101287.03;5010414;28;20059;-72
2021/09/16 07:54:04;;;;;;;5.03;2.65;;;;;;;21.78;45.90;101280.31;5019507;28;20133;-72
2021/09/16 07:56:31;;;;;;;5.38;2.90;;;;;;;21.82;46.07;101289.16;5010172;28;20461;-72
2021/09/16 07:58:57;;;;;;;7.18;3.05;;;;;;;21.83;45.94;101288.97;5025812;28;20495;-72
2021/09/16 08:01:25;;;;;;;4.95;2.45;;;;;;;21.87;45.72;101282.09;5045226;28;20084;-72
2021/09/16 08:03:52;;;;;;;4.95;2.63;;;;;;;21.89;46.14;101285.56;5037267;28;20550;-72
2021/09/16 08:06:19;;;;;;;4.85;2.65;;;;;;;21.91;45.79;101280.72;5028124;28;20061;-72
2021/09/16 08:08:49;;;;;;;5.88;2.70;;;;;;;21.95;45.69;101281.25;5026915;28;20049;-72
2021/09/16 08:11:15;;;;;;;6.60;2.88;;;;;;;21.98;45.70;101287.38;5010461;28;20482;-72
2021/09/16 08:13:42;;;;;;;5.65;2.42;;;;;;;22.01;46.00;101286.16;5026846;28;20137;-72
2021/09/16 08:16:09;;;;;;;4.18;2.38;;;;;;;22.06;45.73;101285.69;5027737;28;20481;-73
2021/09/16 08:18:36;;;;;;;5.97;2.25;;;;;;;22.11;45.65;101300.72;5026388;28;20049;-73
2021/09/16 08:21:03;;;;;;;3.30;2.00;;;;;;;22.13;45.75;101300.56;5027880;28;20050;-73
2021/09/16 08:23:30;;;;;;;5.25;2.10;;;;;;;22.15;45.77;101304.91;5026528;28;20132;-72
2021/09/16 08:25:57;;;;;;;6.57;1.90;;;;;;;22.18;45.93;101300.91;5010066;28;20042;-72
2021/09/16 08:28:24;;;;;;;3.55;1.65;;;;;;;22.19;45.53;101298.00;5025589;28;20072;-73
2021/09/16 08:30:50;;;;;;;4.55;1.88;;;;;;;22.22;45.40;101305.97;5027514;28;20479;-73
2021/09/16 08:33:17;;;;;;;4.88;2.05;;;;;;;22.26;45.40;101296.28;5026232;28;20068;-73
2021/09/16 08:35:43;;;;;;;11.48;2.45;;;;;;;22.28;45.26;101291.47;5010055;28;20096;-72
2021/09/16 08:38:10;;;;;;;3.90;2.20;;;;;;;22.33;45.44;101302.00;5016156;28;20052;-72
2021/09/16 08:40:36;;;;;;;3.85;1.92;;;;;;;22.35;45.33;101295.28;5047142;28;20049;-72
2021/09/16 08:43:04;;;;;;;3.50;1.90;;;;;;;22.36;45.00;101291.47;5024929;28;20132;-73
2021/09/16 08:45:31;;;;;;;3.63;1.75;;;;;;;22.39;45.16;101288.41;5027114;28;20084;-73
2021/09/16 08:47:58;;;;;;;4.75;1.73;;;;;;;22.42;44.90;101289.94;5025960;28;20045;-73
2021/09/16 08:50:27;;;;;;;4.50;2.00;;;;;;;22.49;45.31;101290.97;5027196;28;20088;-73
2021/09/16 08:52:54;;;;;;;4.60;1.88;;;;;;;22.50;45.43;101284.41;5015233;28;20482;-72
2021/09/16 08:55:24;;;;;;;3.83;1.98;;;;;;;22.58;45.16;101283.56;5021592;28;20041;-72
2021/09/16 08:58:00;;;;;;;5.63;1.80;;;;;;;22.62;44.86;101288.63;5023454;28;20084;-73
2021/09/16 09:00:29;;;;;;;4.82;1.77;;;;;;;22.64;45.28;101285.69;5029530;28;20500;-73
2021/09/16 09:02:57;;;;;;;3.72;1.52;;;;;;;22.68;44.78;101273.22;5024892;28;20054;-73
2021/09/16 09:05:27;;;;;;;4.82;2.03;;;;;;;22.73;44.94;101285.50;5026595;28;20038;-73
2021/09/16 09:07:55;;;;;;;3.00;1.70;;;;;;;22.82;44.53;101288.31;5024097;28;20037;-73
2021/09/16 09:10:44;;;;;;;4.90;2.08;;;;;;;22.87;43.95;101295.09;5026935;28;20081;-73
2021/09/16 09:13:16;;;;;;;4.55;1.90;;;;;;;22.91;44.50;101292.81;5025778;28;20151;-72
2021/09/16 09:15:46;;;;;;;4.43;2.30;;;;;;;22.93;44.79;101291.63;5025116;28;20125;-73
2021/09/16 09:18:18;;;;;;;4.45;1.60;;;;;;;22.98;44.27;101294.72;5025531;28;20069;-73
2021/09/16 09:21:07;;;;;;;4.63;1.35;;;;;;;22.99;43.62;101302.00;5026628;28;20049;-72
2021/09/16 09:23:37;;;;;;;2.90;1.05;;;;;;;23.05;43.98;101303.25;5025695;28;20045;-72
2021/09/16 09:26:31;;;;;;;2.53;1.20;;;;;;;23.07;43.67;101304.78;5026327;28;20540;-72
2021/09/16 09:29:07;;;;;;;1.55;0.90;;;;;;;23.10;43.42;101307.22;5025160;28;20127;-72
2021/09/16 09:32:07;;;;;;;2.25;1.00;;;;;;;23.08;42.87;101309.28;5025061;28;20131;-72
2021/09/16 09:34:35;;;;;;;2.78;1.38;;;;;;;23.10;43.32;101303.56;5025293;28;20057;-72
2021/09/16 09:37:08;;;;;;;3.45;1.25;;;;;;;23.14;43.19;101302.19;5025842;28;20734;-72
2021/09/16 09:39:38;;;;;;;2.33;1.25;;;;;;;23.14;43.38;101319.66;5025269;28;20576;-72
2021/09/16 09:42:17;;;;;;;4.45;1.55;;;;;;;23.18;42.57;101305.47;5026386;28;20487;-72
2021/09/16 09:44:44;;;;;;;3.88;1.35;;;;;;;23.17;43.30;101317.59;5024904;28;20474;-72
2021/09/16 09:47:10;;;;;;;4.07;1.40;;;;;;;23.19;43.16;101309.97;5025834;28;20069;-72
2021/09/16 09:49:38;;;;;;;3.58;1.60;;;;;;;23.22;43.03;101299.44;5025003;28;20421;-72
2021/09/16 09:52:05;;;;;;;3.35;1.40;;;;;;;23.25;42.98;101306.50;5021767;28;20078;-72
2021/09/16 09:54:40;;;;;;;3.28;1.50;;;;;;;23.31;42.68;101297.50;5005300;28;20599;-72
2021/09/16 09:57:09;;;;;;;3.33;1.23;;;;;;;23.34;43.52;101302.69;5006201;28;20518;-72
2021/09/16 10:00:05;;;;;;;3.25;1.40;;;;;;;23.37;43.16;101300.44;5023889;28;20049;-72
2021/09/16 10:02:41;;;;;;;2.40;1.10;;;;;;;23.48;42.95;101304.75;5004733;28;20108;-72
2021/09/16 10:05:26;;;;;;;3.97;1.27;;;;;;;23.56;42.66;101302.00;5009314;28;20107;-72
2021/09/16 10:07:55;;;;;;;4.15;1.50;;;;;;;23.63;43.63;101299.41;5024671;28;20434;-72
2021/09/16 10:10:23;;;;;;;3.50;1.40;;;;;;;23.74;43.17;101296.25;5025710;28;20482;-72
2021/09/16 10:12:52;;;;;;;4.40;1.70;;;;;;;23.84;43.14;101296.91;5024701;28;20080;-72
2021/09/16 10:15:21;;;;;;;2.83;1.30;;;;;;;23.93;42.74;101295.84;5025377;28;20136;-72
2021/09/16 10:17:50;;;;;;;3.30;1.30;;;;;;;24.05;42.37;101296.34;5024593;28;20479;-72
2021/09/16 10:20:19;;;;;;;3.30;1.42;;;;;;;24.16;42.64;101305.13;5025453;28;20514;-72
2021/09/16 10:22:52;;;;;;;2.35;1.20;;;;;;;24.28;41.31;101300.06;5024585;28;20557;-72
2021/09/16 10:25:22;;;;;;;3.67;1.38;;;;;;;24.37;41.83;101296.22;5025834;28;20140;-72
2021/09/16 10:27:56;;;;;;;3.42;1.38;;;;;;;24.46;40.85;101306.19;5027759;28;20132;-72
2021/09/16 10:30:22;;;;;;;2.83;1.08;;;;;;;24.48;40.93;101297.69;5027224;28;20080;-72
2021/09/16 10:33:22;;;;;;;2.88;1.20;;;;;;;24.55;40.69;101304.25;5024693;28;20374;-72
2021/09/16 10:35:58;;;;;;;3.42;1.05;;;;;;;24.57;40.36;101300.25;5023728;28;20498;-72
2021/09/16 10:38:36;;;;;;;2.85;1.10;;;;;;;24.62;40.35;101297.78;5024680;28;20133;-72
2021/09/16 10:41:20;;;;;;;3.70;1.10;;;;;;;24.64;39.76;101298.47;5025594;28;20384;-72
2021/09/16 10:44:16;;;;;;;2.53;1.00;;;;;;;24.59;39.93;101295.38;5024893;28;20049;-72
2021/09/16 10:46:45;;;;;;;2.45;1.25;;;;;;;24.62;40.11;101302.50;5024921;28;20128;-72
2021/09/16 10:49:24;;;;;;;1.67;1.00;;;;;;;24.66;39.38;101295.50;5024615;28;20161;-72
2021/09/16 10:52:02;;;;;;;2.35;1.10;;;;;;;24.67;39.69;101301.94;5022907;28;20481;-72
2021/09/16 10:54:35;;;;;;;3.28;1.10;;;;;;;24.69;39.68;101302.63;5003322;28;20408;-73
2021/09/16 10:57:40;;;;;;;2.35;1.05;;;;;;;24.64;39.95;101295.69;5017136;28;20137;-72
2021/09/16 11:00:09;;;;;;;2.05;1.10;;;;;;;24.69;39.97;101305.41;5024210;28;20041;-72
2021/09/16 11:02:46;;;;;;;2.17;1.15;;;;;;;24.73;39.41;101303.97;5028145;28;20054;-72
2021/09/16 11:05:21;;;;;;;2.95;1.30;;;;;;;24.73;38.97;101302.06;5023602;28;20514;-72
2021/09/16 11:07:52;;;;;;;2.28;1.20;;;;;;;24.69;39.69;101297.06;5024147;28;20084;-72
2021/09/16 11:10:22;;;;;;;2.78;1.02;;;;;;;24.72;38.89;101297.53;5025042;28;20140;-72
2021/09/16 11:12:56;;;;;;;3.03;1.15;;;;;;;24.72;39.10;101294.75;5024144;28;20136;-73
2021/09/16 11:15:32;;;;;;;2.75;1.50;;;;;;;24.73;38.19;101295.63;5026651;28;20049;-72
2021/09/16 11:18:04;;;;;;;2.67;1.60;;;;;;;24.69;38.88;101303.50;5026660;28;20057;-72
2021/09/16 11:20:31;;;;;;;2.22;1.20;;;;;;;24.64;39.19;101294.81;5028574;28;20054;-72
2021/09/16 11:22:58;;;;;;;2.47;1.10;;;;;;;24.68;39.02;101292.56;5027942;28;20076;-72
2021/09/16 11:25:25;;;;;;;2.47;1.30;;;;;;;24.68;39.26;101293.44;5028665;28;20459;-72
2021/09/16 11:27:55;;;;;;;3.45;1.10;;;;;;;24.72;38.59;101293.91;5026384;28;20119;-72
2021/09/16 11:30:22;;;;;;;2.80;1.20;;;;;;;24.72;39.26;101299.47;5028354;28;20048;-72
2021/09/16 11:32:49;;;;;;;2.38;1.10;;;;;;;24.73;38.93;101293.72;5027656;28;20037;-72